sensor_id;sensor_type;location;lat;lon;timestamp;P1;durP1;ratioP1;P2;durP2;ratioP2
11443;SDS011;5778;47.856;12.154;2023-04-06T00:01:37;8.30;;;7.37;;
11443;SDS011;5778;47.856;12.154;2023-04-06T00:06:53;9.97;;;7.10;;
11443;SDS011;5778;47.856;12.154;2023-04-06T00:09:22;8.60;;;7.70;;
11443;SDS011;5778;47.856;12.154;2023-04-06T00:11:49;9.00;;;7.33;;
11443;SDS011;5778;47.856;12.154;2023-04-06T00:17:36;10.10;;;7.97;;
11443;SDS011;5778;47.856;12.154;2023-04-06T00:20:03;8.63;;;7.63;;
11443;SDS011;5778;47.856;12.154;2023-04-06T00:22:32;10.43;;;8.17;;
11443;SDS011;5778;47.856;12.154;2023-04-06T00:25:04;11.63;;;8.63;;
11443;SDS011;5778;47.856;12.154;2023-04-06T00:27:32;10.53;;;8.23;;
11443;SDS011;5778;47.856;12.154;2023-04-06T00:29:59;11.43;;;7.80;;
11443;SDS011;5778;47.856;12.154;2023-04-06T00:32:27;9.67;;;8.07;;
11443;SDS011;5778;47.856;12.154;2023-04-06T00:37:53;10.53;;;7.47;;
11443;SDS011;5778;47.856;12.154;2023-04-06T00:40:22;12.40;;;8.30;;
11443;SDS011;5778;47.856;12.154;2023-04-06T00:43:03;11.53;;;7.40;;
11443;SDS011;5778;47.856;12.154;2023-04-06T00:45:31;10.27;;;7.23;;
11443;SDS011;5778;47.856;12.154;2023-04-06T00:47:59;9.10;;;6.90;;
11443;SDS011;5778;47.856;12.154;2023-04-06T00:50:27;10.10;;;7.53;;
11443;SDS011;5778;47.856;12.154;2023-04-06T00:52:58;9.43;;;7.43;;
11443;SDS011;5778;47.856;12.154;2023-04-06T00:55:28;10.17;;;7.23;;
11443;SDS011;5778;47.856;12.154;2023-04-06T00:57:57;11.47;;;7.23;;
11443;SDS011;5778;47.856;12.154;2023-04-06T01:00:27;7.97;;;7.17;;
11443;SDS011;5778;47.856;12.154;2023-04-06T01:02:58;9.30;;;7.33;;
11443;SDS011;5778;47.856;12.154;2023-04-06T01:05:34;9.93;;;8.10;;
11443;SDS011;5778;47.856;12.154;2023-04-06T01:08:08;8.57;;;6.93;;
11443;SDS011;5778;47.856;12.154;2023-04-06T01:10:37;9.97;;;7.43;;
11443;SDS011;5778;47.856;12.154;2023-04-06T01:13:11;11.93;;;8.00;;
11443;SDS011;5778;47.856;12.154;2023-04-06T01:15:59;8.20;;;7.03;;
11443;SDS011;5778;47.856;12.154;2023-04-06T01:18:38;7.27;;;6.50;;
11443;SDS011;5778;47.856;12.154;2023-04-06T01:21:17;9.33;;;7.23;;
11443;SDS011;5778;47.856;12.154;2023-04-06T01:24:12;8.57;;;6.60;;
11443;SDS011;5778;47.856;12.154;2023-04-06T01:26:56;9.50;;;6.63;;
11443;SDS011;5778;47.856;12.154;2023-04-06T01:29:27;8.37;;;6.93;;
11443;SDS011;5778;47.856;12.154;2023-04-06T01:31:55;7.37;;;6.00;;
11443;SDS011;5778;47.856;12.154;2023-04-06T01:34:39;8.47;;;6.60;;
11443;SDS011;5778;47.856;12.154;2023-04-06T01:37:06;9.10;;;6.77;;
11443;SDS011;5778;47.856;12.154;2023-04-06T01:39:35;8.20;;;6.63;;
11443;SDS011;5778;47.856;12.154;2023-04-06T01:42:05;12.83;;;6.90;;
11443;SDS011;5778;47.856;12.154;2023-04-06T01:44:34;8.73;;;6.90;;
11443;SDS011;5778;47.856;12.154;2023-04-06T01:47:10;8.33;;;6.80;;
11443;SDS011;5778;47.856;12.154;2023-04-06T01:49:37;10.23;;;7.07;;
11443;SDS011;5778;47.856;12.154;2023-04-06T01:52:04;9.00;;;7.80;;
11443;SDS011;5778;47.856;12.154;2023-04-06T01:58:18;8.10;;;6.97;;
11443;SDS011;5778;47.856;12.154;2023-04-06T02:00:45;8.90;;;7.23;;
11443;SDS011;5778;47.856;12.154;2023-04-06T02:03:22;7.73;;;6.37;;
11443;SDS011;5778;47.856;12.154;2023-04-06T02:05:57;9.23;;;7.27;;
11443;SDS011;5778;47.856;12.154;2023-04-06T02:08:33;9.20;;;6.27;;
11443;SDS011;5778;47.856;12.154;2023-04-06T02:11:00;8.97;;;6.80;;
11443;SDS011;5778;47.856;12.154;2023-04-06T02:13:34;8.83;;;6.50;;
11443;SDS011;5778;47.856;12.154;2023-04-06T02:16:01;7.40;;;6.60;;
11443;SDS011;5778;47.856;12.154;2023-04-06T02:18:29;8.93;;;7.33;;
11443;SDS011;5778;47.856;12.154;2023-04-06T02:20:56;9.17;;;7.73;;
11443;SDS011;5778;47.856;12.154;2023-04-06T02:23:24;9.63;;;7.30;;
11443;SDS011;5778;47.856;12.154;2023-04-06T02:25:51;8.83;;;6.90;;
11443;SDS011;5778;47.856;12.154;2023-04-06T02:28:19;8.10;;;6.97;;
11443;SDS011;5778;47.856;12.154;2023-04-06T02:30:47;8.30;;;6.83;;
11443;SDS011;5778;47.856;12.154;2023-04-06T02:33:24;10.00;;;6.57;;
11443;SDS011;5778;47.856;12.154;2023-04-06T02:35:51;9.10;;;6.90;;
11443;SDS011;5778;47.856;12.154;2023-04-06T02:38:18;8.33;;;6.70;;
11443;SDS011;5778;47.856;12.154;2023-04-06T02:40:45;7.57;;;6.77;;
11443;SDS011;5778;47.856;12.154;2023-04-06T02:43:21;9.57;;;7.30;;
11443;SDS011;5778;47.856;12.154;2023-04-06T02:45:55;8.30;;;6.37;;
11443;SDS011;5778;47.856;12.154;2023-04-06T02:48:23;8.47;;;6.90;;
11443;SDS011;5778;47.856;12.154;2023-04-06T02:50:52;11.83;;;7.43;;
11443;SDS011;5778;47.856;12.154;2023-04-06T02:53:32;7.20;;;6.17;;
11443;SDS011;5778;47.856;12.154;2023-04-06T02:55:59;8.90;;;6.70;;
11443;SDS011;5778;47.856;12.154;2023-04-06T02:58:36;10.07;;;7.30;;
11443;SDS011;5778;47.856;12.154;2023-04-06T03:01:05;8.63;;;7.03;;
11443;SDS011;5778;47.856;12.154;2023-04-06T03:06:26;8.67;;;6.83;;
11443;SDS011;5778;47.856;12.154;2023-04-06T03:08:58;9.77;;;7.23;;
11443;SDS011;5778;47.856;12.154;2023-04-06T03:11:25;9.10;;;7.17;;
11443;SDS011;5778;47.856;12.154;2023-04-06T03:13:58;7.80;;;6.83;;
11443;SDS011;5778;47.856;12.154;2023-04-06T03:16:27;12.30;;;7.63;;
11443;SDS011;5778;47.856;12.154;2023-04-06T03:18:56;13.37;;;7.63;;
11443;SDS011;5778;47.856;12.154;2023-04-06T03:21:23;11.03;;;7.70;;
11443;SDS011;5778;47.856;12.154;2023-04-06T03:24:04;9.33;;;7.63;;
11443;SDS011;5778;47.856;12.154;2023-04-06T03:26:32;10.53;;;7.60;;
11443;SDS011;5778;47.856;12.154;2023-04-06T03:29:03;11.23;;;8.33;;
11443;SDS011;5778;47.856;12.154;2023-04-06T03:31:32;11.63;;;7.60;;
11443;SDS011;5778;47.856;12.154;2023-04-06T03:37:04;8.57;;;7.67;;
11443;SDS011;5778;47.856;12.154;2023-04-06T03:39:31;10.33;;;8.03;;
11443;SDS011;5778;47.856;12.154;2023-04-06T03:41:59;9.30;;;7.77;;
11443;SDS011;5778;47.856;12.154;2023-04-06T03:44:40;9.53;;;7.20;;
11443;SDS011;5778;47.856;12.154;2023-04-06T03:47:09;7.93;;;6.80;;
11443;SDS011;5778;47.856;12.154;2023-04-06T03:49:36;9.83;;;7.73;;
11443;SDS011;5778;47.856;12.154;2023-04-06T03:52:05;9.40;;;7.33;;
11443;SDS011;5778;47.856;12.154;2023-04-06T03:54:38;14.77;;;8.00;;
11443;SDS011;5778;47.856;12.154;2023-04-06T03:57:05;10.67;;;7.90;;
11443;SDS011;5778;47.856;12.154;2023-04-06T03:59:32;9.27;;;7.13;;
11443;SDS011;5778;47.856;12.154;2023-04-06T04:01:59;9.73;;;7.73;;
11443;SDS011;5778;47.856;12.154;2023-04-06T04:04:30;9.27;;;7.37;;
11443;SDS011;5778;47.856;12.154;2023-04-06T04:06:57;10.63;;;7.57;;
11443;SDS011;5778;47.856;12.154;2023-04-06T04:09:24;8.07;;;6.93;;
11443;SDS011;5778;47.856;12.154;2023-04-06T04:11:51;9.73;;;6.87;;
11443;SDS011;5778;47.856;12.154;2023-04-06T04:14:31;8.97;;;7.13;;
11443;SDS011;5778;47.856;12.154;2023-04-06T04:16:58;11.13;;;7.50;;
11443;SDS011;5778;47.856;12.154;2023-04-06T04:19:25;11.50;;;8.00;;
11443;SDS011;5778;47.856;12.154;2023-04-06T04:21:55;11.47;;;7.93;;
11443;SDS011;5778;47.856;12.154;2023-04-06T04:24:37;11.87;;;8.77;;
11443;SDS011;5778;47.856;12.154;2023-04-06T04:27:04;10.63;;;8.93;;
11443;SDS011;5778;47.856;12.154;2023-04-06T04:29:33;11.73;;;8.53;;
11443;SDS011;5778;47.856;12.154;2023-04-06T04:32:06;11.20;;;8.20;;
11443;SDS011;5778;47.856;12.154;2023-04-06T04:34:35;11.73;;;8.30;;
11443;SDS011;5778;47.856;12.154;2023-04-06T04:37:07;9.70;;;8.37;;
11443;SDS011;5778;47.856;12.154;2023-04-06T04:39:47;13.40;;;8.47;;
11443;SDS011;5778;47.856;12.154;2023-04-06T04:42:14;11.73;;;8.50;;
11443;SDS011;5778;47.856;12.154;2023-04-06T04:47:40;12.27;;;8.63;;
11443;SDS011;5778;47.856;12.154;2023-04-06T04:50:10;9.93;;;8.60;;
11443;SDS011;5778;47.856;12.154;2023-04-06T04:52:42;12.93;;;9.27;;
11443;SDS011;5778;47.856;12.154;2023-04-06T04:55:14;10.67;;;8.40;;
11443;SDS011;5778;47.856;12.154;2023-04-06T04:57:45;14.33;;;9.17;;
11443;SDS011;5778;47.856;12.154;2023-04-06T05:00:12;12.90;;;9.67;;
11443;SDS011;5778;47.856;12.154;2023-04-06T05:02:42;12.13;;;9.67;;
11443;SDS011;5778;47.856;12.154;2023-04-06T05:05:17;11.00;;;9.40;;
11443;SDS011;5778;47.856;12.154;2023-04-06T05:07:46;10.37;;;8.33;;
11443;SDS011;5778;47.856;12.154;2023-04-06T05:10:23;11.10;;;9.17;;
11443;SDS011;5778;47.856;12.154;2023-04-06T05:12:59;10.53;;;9.43;;
11443;SDS011;5778;47.856;12.154;2023-04-06T05:15:26;13.80;;;9.17;;
11443;SDS011;5778;47.856;12.154;2023-04-06T05:17:59;12.70;;;9.60;;
11443;SDS011;5778;47.856;12.154;2023-04-06T05:23:44;13.33;;;10.07;;
11443;SDS011;5778;47.856;12.154;2023-04-06T05:26:11;14.43;;;10.70;;
11443;SDS011;5778;47.856;12.154;2023-04-06T05:28:39;23.03;;;18.17;;
11443;SDS011;5778;47.856;12.154;2023-04-06T05:31:08;17.07;;;13.53;;
11443;SDS011;5778;47.856;12.154;2023-04-06T05:33:45;17.23;;;13.20;;
11443;SDS011;5778;47.856;12.154;2023-04-06T05:36:14;20.10;;;14.00;;
11443;SDS011;5778;47.856;12.154;2023-04-06T05:38:46;13.77;;;12.13;;
11443;SDS011;5778;47.856;12.154;2023-04-06T05:41:29;19.23;;;13.60;;
11443;SDS011;5778;47.856;12.154;2023-04-06T05:44:05;20.87;;;15.00;;
11443;SDS011;5778;47.856;12.154;2023-04-06T05:46:32;27.57;;;17.80;;
11443;SDS011;5778;47.856;12.154;2023-04-06T05:49:00;21.33;;;15.07;;
11443;SDS011;5778;47.856;12.154;2023-04-06T05:51:30;18.50;;;13.50;;
11443;SDS011;5778;47.856;12.154;2023-04-06T05:56:58;22.27;;;15.57;;
11443;SDS011;5778;47.856;12.154;2023-04-06T05:59:25;17.73;;;13.43;;
11443;SDS011;5778;47.856;12.154;2023-04-06T06:01:53;16.30;;;13.27;;
11443;SDS011;5778;47.856;12.154;2023-04-06T06:04:27;15.13;;;11.70;;
11443;SDS011;5778;47.856;12.154;2023-04-06T06:06:54;12.80;;;11.00;;
11443;SDS011;5778;47.856;12.154;2023-04-06T06:09:28;14.60;;;10.80;;
11443;SDS011;5778;47.856;12.154;2023-04-06T06:12:04;12.13;;;10.83;;
11443;SDS011;5778;47.856;12.154;2023-04-06T06:14:48;13.00;;;10.47;;
11443;SDS011;5778;47.856;12.154;2023-04-06T06:17:15;13.23;;;11.30;;
11443;SDS011;5778;47.856;12.154;2023-04-06T06:19:45;16.80;;;11.73;;
11443;SDS011;5778;47.856;12.154;2023-04-06T06:22:12;13.07;;;11.20;;
11443;SDS011;5778;47.856;12.154;2023-04-06T06:24:55;16.13;;;11.30;;
11443;SDS011;5778;47.856;12.154;2023-04-06T06:27:23;11.80;;;10.60;;
11443;SDS011;5778;47.856;12.154;2023-04-06T06:29:51;12.90;;;10.40;;
11443;SDS011;5778;47.856;12.154;2023-04-06T06:32:19;14.97;;;10.57;;
11443;SDS011;5778;47.856;12.154;2023-04-06T06:35:02;13.00;;;10.17;;
11443;SDS011;5778;47.856;12.154;2023-04-06T06:37:29;12.50;;;10.90;;
11443;SDS011;5778;47.856;12.154;2023-04-06T06:39:58;12.93;;;10.67;;
11443;SDS011;5778;47.856;12.154;2023-04-06T06:42:25;13.43;;;9.67;;
11443;SDS011;5778;47.856;12.154;2023-04-06T06:45:21;11.70;;;10.13;;
11443;SDS011;5778;47.856;12.154;2023-04-06T06:47:50;14.03;;;10.33;;
11443;SDS011;5778;47.856;12.154;2023-04-06T06:50:17;14.57;;;10.00;;
11443;SDS011;5778;47.856;12.154;2023-04-06T06:52:45;14.87;;;10.40;;
11443;SDS011;5778;47.856;12.154;2023-04-06T06:55:14;12.63;;;10.30;;
11443;SDS011;5778;47.856;12.154;2023-04-06T06:57:44;11.00;;;8.90;;
11443;SDS011;5778;47.856;12.154;2023-04-06T07:00:13;11.30;;;8.67;;
11443;SDS011;5778;47.856;12.154;2023-04-06T07:02:42;11.53;;;8.70;;
11443;SDS011;5778;47.856;12.154;2023-04-06T07:05:10;10.63;;;8.53;;
11443;SDS011;5778;47.856;12.154;2023-04-06T07:07:37;11.90;;;8.67;;
11443;SDS011;5778;47.856;12.154;2023-04-06T07:10:04;10.20;;;8.33;;
11443;SDS011;5778;47.856;12.154;2023-04-06T07:12:38;10.37;;;9.30;;
11443;SDS011;5778;47.856;12.154;2023-04-06T07:18:19;11.43;;;9.33;;
11443;SDS011;5778;47.856;12.154;2023-04-06T07:20:46;10.67;;;9.40;;
11443;SDS011;5778;47.856;12.154;2023-04-06T07:23:19;16.37;;;9.30;;
11443;SDS011;5778;47.856;12.154;2023-04-06T07:25:46;10.40;;;8.97;;
11443;SDS011;5778;47.856;12.154;2023-04-06T07:28:17;9.27;;;8.37;;
11443;SDS011;5778;47.856;12.154;2023-04-06T07:30:44;9.70;;;8.70;;
11443;SDS011;5778;47.856;12.154;2023-04-06T07:33:20;11.30;;;9.23;;
11443;SDS011;5778;47.856;12.154;2023-04-06T07:35:47;9.47;;;8.43;;
11443;SDS011;5778;47.856;12.154;2023-04-06T07:38:15;10.37;;;8.00;;
11443;SDS011;5778;47.856;12.154;2023-04-06T07:40:42;9.27;;;8.03;;
11443;SDS011;5778;47.856;12.154;2023-04-06T07:43:13;9.97;;;8.13;;
11443;SDS011;5778;47.856;12.154;2023-04-06T07:45:42;16.23;;;11.67;;
11443;SDS011;5778;47.856;12.154;2023-04-06T07:48:10;24.90;;;12.80;;
11443;SDS011;5778;47.856;12.154;2023-04-06T07:50:37;13.63;;;8.87;;
11443;SDS011;5778;47.856;12.154;2023-04-06T07:53:09;10.87;;;9.43;;
11443;SDS011;5778;47.856;12.154;2023-04-06T07:55:37;12.20;;;8.33;;
11443;SDS011;5778;47.856;12.154;2023-04-06T07:58:04;10.07;;;9.07;;
11443;SDS011;5778;47.856;12.154;2023-04-06T08:00:31;12.90;;;8.60;;
11443;SDS011;5778;47.856;12.154;2023-04-06T08:03:10;10.43;;;8.13;;
11443;SDS011;5778;47.856;12.154;2023-04-06T08:05:37;10.73;;;8.33;;
11443;SDS011;5778;47.856;12.154;2023-04-06T08:08:04;9.17;;;7.67;;
11443;SDS011;5778;47.856;12.154;2023-04-06T08:10:31;8.33;;;7.13;;
11443;SDS011;5778;47.856;12.154;2023-04-06T08:15:48;9.33;;;6.83;;
11443;SDS011;5778;47.856;12.154;2023-04-06T08:18:17;8.43;;;7.27;;
11443;SDS011;5778;47.856;12.154;2023-04-06T08:20:44;10.53;;;7.20;;
11443;SDS011;5778;47.856;12.154;2023-04-06T08:23:10;7.83;;;6.90;;
11443;SDS011;5778;47.856;12.154;2023-04-06T08:25:38;10.67;;;6.97;;
11443;SDS011;5778;47.856;12.154;2023-04-06T08:28:05;7.83;;;6.80;;
11443;SDS011;5778;47.856;12.154;2023-04-06T08:30:32;8.03;;;7.07;;
11443;SDS011;5778;47.856;12.154;2023-04-06T08:36:10;7.03;;;6.33;;
11443;SDS011;5778;47.856;12.154;2023-04-06T08:38:38;8.17;;;6.60;;
11443;SDS011;5778;47.856;12.154;2023-04-06T08:41:09;7.20;;;6.50;;
11443;SDS011;5778;47.856;12.154;2023-04-06T08:43:41;8.77;;;6.50;;
11443;SDS011;5778;47.856;12.154;2023-04-06T08:46:10;7.50;;;6.70;;
11443;SDS011;5778;47.856;12.154;2023-04-06T08:48:38;7.37;;;6.67;;
11443;SDS011;5778;47.856;12.154;2023-04-06T08:51:06;7.67;;;6.47;;
11443;SDS011;5778;47.856;12.154;2023-04-06T08:53:54;7.50;;;6.70;;
11443;SDS011;5778;47.856;12.154;2023-04-06T08:56:23;6.70;;;5.90;;
11443;SDS011;5778;47.856;12.154;2023-04-06T08:58:50;7.33;;;6.30;;
11443;SDS011;5778;47.856;12.154;2023-04-06T09:01:20;6.50;;;5.90;;
11443;SDS011;5778;47.856;12.154;2023-04-06T09:03:54;8.03;;;6.30;;
11443;SDS011;5778;47.856;12.154;2023-04-06T09:06:24;6.47;;;5.43;;
11443;SDS011;5778;47.856;12.154;2023-04-06T09:08:54;6.83;;;5.63;;
11443;SDS011;5778;47.856;12.154;2023-04-06T09:11:23;6.03;;;5.43;;
11443;SDS011;5778;47.856;12.154;2023-04-06T09:14:00;7.83;;;5.70;;
11443;SDS011;5778;47.856;12.154;2023-04-06T09:16:27;6.33;;;5.33;;
11443;SDS011;5778;47.856;12.154;2023-04-06T09:19:05;5.70;;;5.10;;
11443;SDS011;5778;47.856;12.154;2023-04-06T09:21:32;6.03;;;5.50;;
11443;SDS011;5778;47.856;12.154;2023-04-06T09:24:07;5.60;;;5.00;;
11443;SDS011;5778;47.856;12.154;2023-04-06T09:26:45;6.20;;;5.57;;
11443;SDS011;5778;47.856;12.154;2023-04-06T09:29:21;6.73;;;5.20;;
11443;SDS011;5778;47.856;12.154;2023-04-06T09:31:51;5.23;;;4.73;;
11443;SDS011;5778;47.856;12.154;2023-04-06T09:34:23;6.80;;;4.90;;
11443;SDS011;5778;47.856;12.154;2023-04-06T09:36:50;5.50;;;5.00;;
11443;SDS011;5778;47.856;12.154;2023-04-06T09:39:21;6.00;;;5.27;;
11443;SDS011;5778;47.856;12.154;2023-04-06T09:41:50;6.00;;;5.47;;
11443;SDS011;5778;47.856;12.154;2023-04-06T09:44:19;5.50;;;5.00;;
11443;SDS011;5778;47.856;12.154;2023-04-06T09:46:46;5.70;;;5.10;;
11443;SDS011;5778;47.856;12.154;2023-04-06T09:49:14;6.33;;;4.90;;
11443;SDS011;5778;47.856;12.154;2023-04-06T09:51:42;7.60;;;5.90;;
11443;SDS011;5778;47.856;12.154;2023-04-06T09:54:15;6.70;;;5.13;;
11443;SDS011;5778;47.856;12.154;2023-04-06T09:56:47;7.83;;;5.57;;
11443;SDS011;5778;47.856;12.154;2023-04-06T09:59:18;6.10;;;5.50;;
11443;SDS011;5778;47.856;12.154;2023-04-06T10:01:51;6.00;;;5.30;;
11443;SDS011;5778;47.856;12.154;2023-04-06T10:07:19;6.67;;;5.07;;
11443;SDS011;5778;47.856;12.154;2023-04-06T10:09:47;7.37;;;5.60;;
11443;SDS011;5778;47.856;12.154;2023-04-06T10:12:17;6.40;;;5.80;;
11443;SDS011;5778;47.856;12.154;2023-04-06T10:14:47;6.37;;;5.47;;
11443;SDS011;5778;47.856;12.154;2023-04-06T10:17:15;7.23;;;6.30;;
11443;SDS011;5778;47.856;12.154;2023-04-06T10:19:44;6.70;;;6.10;;
11443;SDS011;5778;47.856;12.154;2023-04-06T10:22:18;7.03;;;6.33;;
11443;SDS011;5778;47.856;12.154;2023-04-06T10:24:56;7.40;;;6.70;;
11443;SDS011;5778;47.856;12.154;2023-04-06T10:27:34;8.13;;;6.30;;
11443;SDS011;5778;47.856;12.154;2023-04-06T10:30:02;7.10;;;6.40;;
11443;SDS011;5778;47.856;12.154;2023-04-06T10:32:33;7.13;;;6.53;;
11443;SDS011;5778;47.856;12.154;2023-04-06T10:38:03;6.83;;;6.13;;
11443;SDS011;5778;47.856;12.154;2023-04-06T10:40:30;8.83;;;7.90;;
11443;SDS011;5778;47.856;12.154;2023-04-06T10:43:08;6.90;;;6.23;;
11443;SDS011;5778;47.856;12.154;2023-04-06T10:45:36;7.10;;;6.00;;
11443;SDS011;5778;47.856;12.154;2023-04-06T10:48:12;7.60;;;6.00;;
11443;SDS011;5778;47.856;12.154;2023-04-06T10:50:41;6.53;;;5.77;;
11443;SDS011;5778;47.856;12.154;2023-04-06T10:53:20;6.20;;;5.60;;
11443;SDS011;5778;47.856;12.154;2023-04-06T10:55:49;6.27;;;5.53;;
11443;SDS011;5778;47.856;12.154;2023-04-06T10:58:19;7.27;;;6.57;;
11443;SDS011;5778;47.856;12.154;2023-04-06T11:00:46;7.20;;;6.60;;
11443;SDS011;5778;47.856;12.154;2023-04-06T11:03:26;8.10;;;6.20;;
11443;SDS011;5778;47.856;12.154;2023-04-06T11:05:54;6.93;;;6.23;;
11443;SDS011;5778;47.856;12.154;2023-04-06T11:08:25;7.10;;;6.40;;
11443;SDS011;5778;47.856;12.154;2023-04-06T11:11:03;8.33;;;7.37;;
11443;SDS011;5778;47.856;12.154;2023-04-06T11:13:38;7.47;;;6.83;;
11443;SDS011;5778;47.856;12.154;2023-04-06T11:16:12;7.70;;;7.00;;
11443;SDS011;5778;47.856;12.154;2023-04-06T11:18:50;6.70;;;6.10;;
11443;SDS011;5778;47.856;12.154;2023-04-06T11:21:19;6.23;;;5.63;;
11443;SDS011;5778;47.856;12.154;2023-04-06T11:23:49;8.10;;;6.30;;
11443;SDS011;5778;47.856;12.154;2023-04-06T11:26:16;6.73;;;6.10;;
11443;SDS011;5778;47.856;12.154;2023-04-06T11:28:44;7.00;;;6.30;;
11443;SDS011;5778;47.856;12.154;2023-04-06T11:31:11;7.50;;;6.43;;
11443;SDS011;5778;47.856;12.154;2023-04-06T11:33:42;7.10;;;6.40;;
11443;SDS011;5778;47.856;12.154;2023-04-06T11:36:09;6.90;;;6.20;;
11443;SDS011;5778;47.856;12.154;2023-04-06T11:38:38;7.40;;;6.60;;
11443;SDS011;5778;47.856;12.154;2023-04-06T11:41:06;7.30;;;6.60;;
11443;SDS011;5778;47.856;12.154;2023-04-06T11:43:54;7.60;;;6.73;;
11443;SDS011;5778;47.856;12.154;2023-04-06T11:46:21;7.97;;;6.33;;
11443;SDS011;5778;47.856;12.154;2023-04-06T11:48:48;8.60;;;6.80;;
11443;SDS011;5778;47.856;12.154;2023-04-06T11:51:21;6.67;;;6.17;;
11443;SDS011;5778;47.856;12.154;2023-04-06T11:53:50;7.00;;;6.10;;
11443;SDS011;5778;47.856;12.154;2023-04-06T11:56:23;7.23;;;6.57;;
11443;SDS011;5778;47.856;12.154;2023-04-06T11:58:53;7.63;;;6.83;;
11443;SDS011;5778;47.856;12.154;2023-04-06T12:01:21;7.50;;;6.70;;
11443;SDS011;5778;47.856;12.154;2023-04-06T12:07:11;7.10;;;6.40;;
11443;SDS011;5778;47.856;12.154;2023-04-06T12:09:39;8.07;;;6.70;;
11443;SDS011;5778;47.856;12.154;2023-04-06T12:12:06;7.80;;;6.97;;
11443;SDS011;5778;47.856;12.154;2023-04-06T12:14:39;9.13;;;7.13;;
11443;SDS011;5778;47.856;12.154;2023-04-06T12:17:06;8.23;;;6.87;;
11443;SDS011;5778;47.856;12.154;2023-04-06T12:19:33;7.47;;;6.87;;
11443;SDS011;5778;47.856;12.154;2023-04-06T12:22:00;7.60;;;6.80;;
11443;SDS011;5778;47.856;12.154;2023-04-06T12:24:33;7.60;;;6.90;;
11443;SDS011;5778;47.856;12.154;2023-04-06T12:27:00;8.53;;;6.70;;
11443;SDS011;5778;47.856;12.154;2023-04-06T12:29:27;6.33;;;5.83;;
11443;SDS011;5778;47.856;12.154;2023-04-06T12:31:56;7.50;;;6.57;;
11443;SDS011;5778;47.856;12.154;2023-04-06T12:34:25;7.50;;;6.80;;
11443;SDS011;5778;47.856;12.154;2023-04-06T12:36:52;7.40;;;6.60;;
11443;SDS011;5778;47.856;12.154;2023-04-06T12:39:19;7.13;;;6.43;;
11443;SDS011;5778;47.856;12.154;2023-04-06T12:41:47;6.70;;;6.10;;
11443;SDS011;5778;47.856;12.154;2023-04-06T12:47:05;7.20;;;6.50;;
11443;SDS011;5778;47.856;12.154;2023-04-06T12:49:32;7.07;;;6.47;;
11443;SDS011;5778;47.856;12.154;2023-04-06T12:51:59;7.87;;;6.30;;
11443;SDS011;5778;47.856;12.154;2023-04-06T12:57:30;6.90;;;6.30;;
11443;SDS011;5778;47.856;12.154;2023-04-06T12:59:57;7.07;;;5.80;;
11443;SDS011;5778;47.856;12.154;2023-04-06T13:02:26;6.33;;;5.57;;
11443;SDS011;5778;47.856;12.154;2023-04-06T13:04:53;6.37;;;5.77;;
11443;SDS011;5778;47.856;12.154;2023-04-06T13:07:20;6.97;;;6.37;;
11443;SDS011;5778;47.856;12.154;2023-04-06T13:09:48;7.10;;;6.43;;
11443;SDS011;5778;47.856;12.154;2023-04-06T13:12:15;7.00;;;6.30;;
11443;SDS011;5778;47.856;12.154;2023-04-06T13:14:43;7.03;;;6.03;;
11443;SDS011;5778;47.856;12.154;2023-04-06T13:17:12;6.30;;;5.67;;
11443;SDS011;5778;47.856;12.154;2023-04-06T13:19:41;7.67;;;5.80;;
11443;SDS011;5778;47.856;12.154;2023-04-06T13:22:08;6.10;;;5.60;;
11443;SDS011;5778;47.856;12.154;2023-04-06T13:24:35;6.50;;;5.90;;
11443;SDS011;5778;47.856;12.154;2023-04-06T13:27:02;6.13;;;5.53;;
11443;SDS011;5778;47.856;12.154;2023-04-06T13:29:29;10.60;;;7.27;;
11443;SDS011;5778;47.856;12.154;2023-04-06T13:31:56;7.00;;;6.30;;
11443;SDS011;5778;47.856;12.154;2023-04-06T13:34:24;9.17;;;7.97;;
11443;SDS011;5778;47.856;12.154;2023-04-06T13:36:54;6.23;;;5.70;;
11443;SDS011;5778;47.856;12.154;2023-04-06T13:39:21;7.03;;;6.00;;
11443;SDS011;5778;47.856;12.154;2023-04-06T13:41:48;6.57;;;6.00;;
11443;SDS011;5778;47.856;12.154;2023-04-06T13:44:15;6.07;;;5.47;;
11443;SDS011;5778;47.856;12.154;2023-04-06T13:46:42;6.30;;;5.70;;
11443;SDS011;5778;47.856;12.154;2023-04-06T13:49:09;5.60;;;5.10;;
11443;SDS011;5778;47.856;12.154;2023-04-06T13:51:36;6.50;;;5.90;;
11443;SDS011;5778;47.856;12.154;2023-04-06T13:54:08;5.10;;;4.70;;
11443;SDS011;5778;47.856;12.154;2023-04-06T13:56:35;6.93;;;5.03;;
11443;SDS011;5778;47.856;12.154;2023-04-06T13:59:02;5.17;;;4.77;;
11443;SDS011;5778;47.856;12.154;2023-04-06T14:01:30;5.77;;;5.20;;
11443;SDS011;5778;47.856;12.154;2023-04-06T14:06:44;5.77;;;4.60;;
11443;SDS011;5778;47.856;12.154;2023-04-06T14:09:13;5.80;;;5.30;;
11443;SDS011;5778;47.856;12.154;2023-04-06T14:11:40;5.07;;;4.67;;
11443;SDS011;5778;47.856;12.154;2023-04-06T14:14:12;4.90;;;4.50;;
11443;SDS011;5778;47.856;12.154;2023-04-06T14:16:39;5.43;;;4.90;;
11443;SDS011;5778;47.856;12.154;2023-04-06T14:19:09;4.77;;;4.37;;
11443;SDS011;5778;47.856;12.154;2023-04-06T14:21:36;5.43;;;4.93;;
11443;SDS011;5778;47.856;12.154;2023-04-06T14:24:17;5.97;;;5.47;;
11443;SDS011;5778;47.856;12.154;2023-04-06T14:26:44;5.73;;;5.03;;
11443;SDS011;5778;47.856;12.154;2023-04-06T14:29:11;5.37;;;4.70;;
11443;SDS011;5778;47.856;12.154;2023-04-06T14:31:38;5.83;;;5.23;;
11443;SDS011;5778;47.856;12.154;2023-04-06T14:34:11;5.00;;;4.50;;
11443;SDS011;5778;47.856;12.154;2023-04-06T14:36:38;6.70;;;5.00;;
11443;SDS011;5778;47.856;12.154;2023-04-06T14:39:05;5.03;;;4.63;;
11443;SDS011;5778;47.856;12.154;2023-04-06T14:41:34;5.87;;;5.23;;
11443;SDS011;5778;47.856;12.154;2023-04-06T14:47:08;4.77;;;4.37;;
11443;SDS011;5778;47.856;12.154;2023-04-06T14:49:35;8.20;;;4.70;;
11443;SDS011;5778;47.856;12.154;2023-04-06T14:52:02;5.27;;;4.87;;
11443;SDS011;5778;47.856;12.154;2023-04-06T14:54:30;5.07;;;4.57;;
11443;SDS011;5778;47.856;12.154;2023-04-06T14:56:58;4.57;;;4.17;;
11443;SDS011;5778;47.856;12.154;2023-04-06T14:59:25;5.27;;;4.77;;
11443;SDS011;5778;47.856;12.154;2023-04-06T15:01:52;5.23;;;4.50;;
11443;SDS011;5778;47.856;12.154;2023-04-06T15:04:19;8.23;;;4.70;;
11443;SDS011;5778;47.856;12.154;2023-04-06T15:06:46;6.30;;;5.70;;
11443;SDS011;5778;47.856;12.154;2023-04-06T15:09:13;6.00;;;5.40;;
11443;SDS011;5778;47.856;12.154;2023-04-06T15:11:40;6.10;;;5.50;;
11443;SDS011;5778;47.856;12.154;2023-04-06T15:17:35;5.50;;;5.00;;
11443;SDS011;5778;47.856;12.154;2023-04-06T15:20:03;5.40;;;4.90;;
11443;SDS011;5778;47.856;12.154;2023-04-06T15:22:30;5.20;;;4.70;;
11443;SDS011;5778;47.856;12.154;2023-04-06T15:25:05;5.47;;;5.07;;
11443;SDS011;5778;47.856;12.154;2023-04-06T15:27:32;5.93;;;5.33;;
11443;SDS011;5778;47.856;12.154;2023-04-06T15:29:59;5.13;;;4.50;;
11443;SDS011;5778;47.856;12.154;2023-04-06T15:32:27;5.47;;;4.97;;
11443;SDS011;5778;47.856;12.154;2023-04-06T15:35:11;5.53;;;4.83;;
11443;SDS011;5778;47.856;12.154;2023-04-06T15:37:38;5.63;;;5.03;;
11443;SDS011;5778;47.856;12.154;2023-04-06T15:40:05;5.00;;;4.60;;
11443;SDS011;5778;47.856;12.154;2023-04-06T15:42:33;11.43;;;5.00;;
11443;SDS011;5778;47.856;12.154;2023-04-06T15:45:04;5.37;;;4.47;;
11443;SDS011;5778;47.856;12.154;2023-04-06T15:47:32;4.47;;;4.10;;
11443;SDS011;5778;47.856;12.154;2023-04-06T15:49:59;5.13;;;4.07;;
11443;SDS011;5778;47.856;12.154;2023-04-06T15:52:27;5.00;;;4.60;;
11443;SDS011;5778;47.856;12.154;2023-04-06T15:54:54;5.00;;;4.50;;
11443;SDS011;5778;47.856;12.154;2023-04-06T15:57:23;6.80;;;4.50;;
11443;SDS011;5778;47.856;12.154;2023-04-06T15:59:49;5.10;;;4.70;;
11443;SDS011;5778;47.856;12.154;2023-04-06T16:02:19;5.90;;;5.30;;